• Join FlightAware (Why Join?)
  • Login
  • US Flag 
05:08PM EDT


 

Airport Tracker/Info


-or-


 

Live Flight TrackerFlight Track Log ✈ RPA4907 ✈ 28-Jun-2013 ✈ KALB - KIAD

Flight Track Log - Related Links

Times and Time Zones

All times are in EDT time to prevent confusion due to time zone crossing. See the RPA4907 flight status page for this flight to view local times or setup timezone preferences in your user account.

Time Position Orientation Groundspeed Altitude Reporting Facility
EDT Latitude Longitude Course Direction KTS MPH feet Rate Location/Type
11:18AM 42.8850 -73.9022 80° East 222 255 2,000  Level Boston Center
11:19AM 42.8942 -73.8344 80° East 220 253 2,000 -180 Level Boston Center
11:20AM 42.8339 -73.8103 164° South 196 226 1,700 -480 Descending Boston Center
11:21AM 42.7922 -73.8067 176° South 125 144 1,000 6,660 Descending Boston Center
11:24AM 42.7922 -73.6228 90° East 155 178 24,000  Climbing Boston Center
11:26AM 42.6798 -73.7435 270° West  Level Estimated
11:33AM 42.2373 -74.2133 219° Southwest  Level Estimated
11:34AM 42.2631 -74.3161 289° West  Level FlightAware Approximate
11:35AM 42.1988 -74.3810 216° Southwest  Level Estimated
11:36AM 42.1344 -74.4457 219° Southwest  Level Estimated
11:37AM 42.1415 -74.5536 275° West  Level FlightAware Approximate
11:38AM 42.1485 -74.6615 275° West  Level FlightAware Approximate
11:39AM 42.0823 -74.7228 249° West  Level Estimated
11:40AM 42.0161 -74.7840 246° West  Level Estimated
11:41AM 41.9499 -74.8450 243° Southwest  Level Estimated
11:42AM 41.8836 -74.9059 246° West  Level Estimated
11:43AM 41.8173 -74.9667 235° Southwest  Level Estimated
11:44AM 41.8117 -75.0742 266° West  Level FlightAware Approximate
11:45AM 41.8061 -75.1817 266° West  Level FlightAware Approximate
11:46AM 41.8003 -75.2891 266° West  Level FlightAware Approximate
11:47AM 41.7945 -75.3965 266° West  Level FlightAware Approximate
11:48AM 41.7885 -75.5039 266° West  Level FlightAware Approximate
11:49AM 41.7178 -75.5549 239° Southwest  Level Estimated
11:50AM 41.7003 -75.6599 257° West  Level FlightAware Approximate
11:51AM 41.6827 -75.7648 257° West  Level FlightAware Approximate
11:52AM 41.6650 -75.8697 257° West  Level FlightAware Approximate
11:53AM 41.5920 -75.9143 234° Southwest  Level Estimated
11:54AM 41.5657 -76.0158 251° West  Level FlightAware Approximate
11:55AM 41.5394 -76.1171 251° West  Level FlightAware Approximate
11:56AM 41.4649 -76.1573 239° Southwest  Level Estimated
11:57AM 41.4429 -76.2603 254° West  Level FlightAware Approximate
11:58AM 41.3677 -76.2979 190° South  Level Estimated
11:59AM 41.3166 -76.3803 230° Southwest  Level FlightAware Approximate
12:00PM 41.2654 -76.4627 230° Southwest  Level FlightAware Approximate
12:01PM 41.2142 -76.5449 230° Southwest  Level FlightAware Approximate
12:02PM 41.1376 -76.5769 187° South  Level Estimated
12:03PM 41.0725 -76.6392 216° Southwest  Level FlightAware Approximate
12:04PM 41.0073 -76.7014 216° Southwest  Level FlightAware Approximate
12:05PM 40.9404 -76.7268 193° South  Level Estimated
12:06PM 40.8758 -76.7609 202° Southwest  Level FlightAware Approximate
12:07PM 40.8111 -76.7949 202° Southwest  Level FlightAware Approximate
12:08PM 40.7464 -76.8288 202° Southwest  Level FlightAware Approximate
12:09PM 40.6817 -76.8626 202° Southwest  Level FlightAware Approximate
12:10PM 40.6145 -76.8864 189° South  Level Estimated
12:11PM 40.5488 -76.9166 199° South  Level FlightAware Approximate
12:12PM 40.4815 -76.9399 197° South  Level Estimated
12:13PM 40.4142 -76.9633 194° South  Level Estimated
12:14PM 40.3469 -76.9865 194° South  Level Estimated
12:15PM 40.2808 -77.0151 198° South  Level FlightAware Approximate
12:16PM 40.2135 -77.0380 201° Southwest  Level Estimated
12:17PM 40.1461 -77.0608 192° South  Level Estimated
12:18PM 40.0785 -77.0825 194° South  Level FlightAware Approximate
12:19PM 40.0112 -77.1053 194° South  Level Estimated
12:20PM 39.9441 -77.1297 196° South  Level FlightAware Approximate
12:21PM 39.8767 -77.1523 194° South  Level Estimated
12:21PM 42.6733 -73.8239 193° South 210 242 3,400  Level Boston Center
12:22PM 39.7990 -77.1784 232° Southwest  Level Estimated
12:23PM 39.7212 -77.2044 189° South  Level Estimated
12:23PM 42.6722 -73.9197 269° West 234 269 6,400  Level Boston Center
12:24PM 39.6434 -77.2304 180° South  Level Estimated
12:24PM 42.6858 -73.9936 284° West 227 261 9,000  Level Boston Center
12:25PM 39.5657 -77.2562 186° South  Level Estimated
12:25PM 42.7053 -74.0872 286° West 221 254 10,600  Level Boston Center
12:26PM 42.7206 -74.1781 283° West 239 275 11,900 1,440 Climbing Boston Center
12:27PM 42.7397 -74.2778 285° West 262 302 13,500 1,560 Climbing Boston Center
12:28PM 42.7094 -74.3531 241° Southwest 245 282 15,100 1,500 Climbing Boston Center
12:29PM 42.6542 -74.4133 219° Southwest 237 273 16,600 1,320 Climbing Boston Center
12:30PM 42.6011 -74.4739 220° Southwest 249 287 17,800 1,440 Climbing Boston Center
12:31PM 42.5561 -74.5314 223° Southwest 249 287 19,500 1,500 Climbing Boston Center
12:32PM 42.5050 -74.5889 220° Southwest 249 287 20,800 1,200 Climbing Boston Center
12:33PM 42.4603 -74.6464 223° Southwest 239 275 21,900 600 Climbing Boston Center
12:34PM 42.4211 -74.7267 237° Southwest 239 275 22,000  Climbing Boston Center
12:35PM 42.3775 -74.8150 236° Southwest 268 308 22,000  Level Boston Center
12:36PM 42.3319 -74.9061 236° Southwest 290 334 22,000  Level Boston Center
12:37PM 42.2364 -75.0842 234° Southwest 320 368 22,000  Level New York Center
12:38PM 42.1869 -75.1844 236° Southwest 325 374 22,000  Level New York Center
12:39PM 42.1356 -75.2789 234° Southwest 325 374 22,000  Level New York Center
12:40PM 42.0883 -75.3678 234° Southwest 320 368 22,000  Level New York Center
12:41PM 42.0456 -75.4514 235° Southwest 304 350 22,000  Level New York Center
12:42PM 42.0025 -75.5378 236° Southwest 290 334 22,000  Level New York Center
12:43PM 41.9556 -75.6208 233° Southwest 290 334 22,000  Level New York Center
12:44PM 41.9103 -75.7094 236° Southwest 290 334 22,000  Level New York Center
12:45PM 41.8628 -75.7950 233° Southwest 290 334 22,000  Level New York Center
12:46PM 41.8197 -75.8808 236° Southwest 290 334 22,000 -60 Level New York Center
12:47PM 41.7722 -75.9661 233° Southwest 290 334 21,900 -780 Descending New York Center
12:48PM 41.7286 -76.0572 237° Southwest 295 339 20,500 -1,500 Descending New York Center
12:49PM 41.6811 -76.1422 233° Southwest 295 339 19,000 -1,560 Descending New York Center
12:50PM 41.6378 -76.2222 234° Southwest 295 339 17,500 -1,380 Descending New York Center
12:51PM 41.5992 -76.2911 233° Southwest 274 315 16,300 -780 Descending New York Center
12:52PM 41.5469 -76.3867 234° Southwest 286 329 16,000 -180 Descending New York Center
12:53PM 41.4736 -76.4386 208° Southwest 286 329 16,000  Level New York Center
12:54PM 41.3983 -76.4875 206° Southwest 301 346 16,000  Level New York Center
12:55PM 41.3294 -76.5314 206° Southwest 307 353 16,000  Level New York Center
12:56PM 41.2519 -76.5828 207° Southwest 317 365 16,000  Level New York Center
12:57PM 41.1681 -76.6364 206° Southwest 312 359 16,000  Level New York Center
12:58PM 41.0989 -76.6881 209° Southwest 312 359 16,000  Level New York Center
12:59PM 41.0236 -76.7367 206° Southwest 312 359 16,000  Level New York Center
01:00PM 40.9397 -76.7897 206° Southwest 312 359 16,000  Level New York Center
01:01PM 40.8642 -76.8406 207° Southwest 312 359 16,000  Level New York Center
01:02PM 40.7886 -76.8889 206° Southwest 312 359 16,000  Level New York Center
01:03PM 40.7094 -76.9283 201° Southwest 306 352 16,000  Level New York Center
01:04PM 40.6306 -76.9650 199° South 301 346 16,100  Climbing New York Center
01:05PM 40.5492 -77.0042 200° South 301 346 16,100  Level New York Center
01:06PM 40.4683 -77.0378 198° South 311 358 16,100 -300 Level New York Center
01:07PM 40.3869 -77.0767 200° South 311 358 15,600 -780 Descending New York Center
01:08PM 40.3144 -77.1081 198° South 311 358 14,600 -900 Descending New York Center
01:09PM 40.2522 -77.1378 200° South 311 358 13,800 -1,020 Descending New York Center
01:12PM 40.0333 -77.2167 195° South 294 338 11,100 -1,140 Descending Potomac TRACON
01:13PM 39.9667 -77.2500 201° Southwest 287 330 10,000 -1,380 Descending Potomac TRACON
01:14PM 39.8833 -77.2667 189° South 285 328 8,400 -1,500 Descending Potomac TRACON
01:15PM 39.8167 -77.2833 191° South 270 311 7,100 -720 Descending Potomac TRACON
01:16PM 39.7500 -77.3000 191° South 253 291 7,000  Descending Potomac TRACON
01:17PM 39.6833 -77.3333 201° Southwest 249 287 7,100  Climbing Potomac TRACON
01:18PM 39.6167 -77.3667 201° Southwest 248 285 7,100 -60 Level Potomac TRACON
01:19PM 39.5500 -77.4167 210° Southwest 257 296 7,000 -60 Descending Potomac TRACON
01:20PM 39.4833 -77.4500 201° Southwest 255 293 7,000  Level Potomac TRACON
01:21PM 39.4000 -77.4500 180° South 267 307 7,000  Level Potomac TRACON
01:22PM 39.3333 -77.4500 180° South 259 298 7,000 -840 Level Potomac TRACON
01:23PM 39.2667 -77.4500 180° South 241 277 5,400 -1,500 Descending Potomac TRACON
01:24PM 39.2000 -77.4500 180° South 229 264 4,000 -900 Descending Potomac TRACON
01:25PM 39.1500 -77.4500 180° South 199 229 3,600 -720 Descending Potomac TRACON
01:26PM 39.1000 -77.4500 180° South 189 217 2,600 -1,020 Descending Potomac TRACON